Pagrindinis puslapis
METAR-TAF:

METAR-TAF

Oro uostai :

Normanton, Australija

platuma: 17-41-06S, ilguma: 141-04-12E, Aukštis: 22 m

Dabartinis oras

Ataskaita buvo paskelbta 1 valandą ir 17 minutes, ne 00:00 UTC
Vėjas 7 kt iš Šiaurės/Šiaurės Rytų, svyruoja nuo Šiaurės ir Rytų/Šiaurės Rytų
Temperatūra 32°C
Drėgmė 49%
Slėgis 1010 hPa
Matomumas 10 km arba daugiau

METAR: YNTN 290000Z AUTO 03007KT 360V070 9999 // NCD 32/20 Q1010

Laikas: 11:17 (01:17 UTC)


TAF: trūkstamas

Orai ataskaitas ir orų prognozės (METAR, TAF).

turimą stotys yra geltonos ir raudonos taškus žemėlapyje.

Perkelti pele per norėdami pamatyti stoties vardą.

Tada spustelėkite, norėdami matyti oro stebėjimo ir prognozės.

Norėdami pakeisti žemėlapį: spustelėkite ant žalios mygtukų su juodo kryžiaus žemyn,; žalią mygtuką su brūkšneliu, jei norite nutolinti; arba žalių rodyklių gretimoms žemėlapius.


METAR-TAF: